Time;durP1;ratioP1;P1;durP2;ratioP2;P2;SDS_P1;SDS_P2;PMS_P1;PMS_P2;Temp;Humidity;BMP_temperature;BMP_pressure;BME280_temperature;BME280_humidity;BME280_pressure;Samples;Min_cycle;Max_cycle;Signal;HPM_P1;HPM_P2
2023/07/20 00:01:17;;;;;;;3.58;1.62;;;25.10;95.70;;;;;;1898722;75;21608;-76
2023/07/20 00:04:09;;;;;;;3.15;1.70;;;25.00;95.50;;;;;;1912663;75;21078;-76
2023/07/20 00:07:01;;;;;;;2.77;1.65;;;24.90;96.00;;;;;;1911146;75;21107;-76
2023/07/20 00:09:52;;;;;;;3.62;1.60;;;24.90;96.00;;;;;;1890426;75;21180;-76
2023/07/20 00:12:47;;;;;;;3.05;1.60;;;24.90;96.00;;;;;;1900558;75;21118;-76
2023/07/20 00:15:37;;;;;;;3.87;1.87;;;24.90;96.20;;;;;;1892429;75;21171;-75
2023/07/20 00:18:28;;;;;;;1.60;1.30;;;25.00;96.00;;;;;;1897985;75;21582;-75
2023/07/20 00:21:19;;;;;;;3.12;1.92;;;24.90;96.20;;;;;;1892504;75;21094;-75
2023/07/20 00:24:11;;;;;;;4.42;1.82;;;24.80;96.50;;;;;;1898735;75;21168;-75
2023/07/20 00:29:45;;;;;;;4.15;1.80;;;24.90;96.40;;;;;;1944973;72;22290;-75
2023/07/20 00:32:39;;;;;;;2.20;1.72;;;24.80;96.60;;;;;;1917037;73;21105;-76
2023/07/20 00:35:30;;;;;;;3.85;1.85;;;24.80;96.90;;;;;;1926355;73;21160;-75
2023/07/20 00:38:22;;;;;;;3.65;1.98;;;24.70;97.00;;;;;;1931642;73;21094;-76
2023/07/20 00:41:14;;;;;;;2.27;1.35;;;24.70;97.20;;;;;;1927450;73;21172;-75
2023/07/20 00:44:08;;;;;;;2.55;1.90;;;24.70;97.20;;;;;;1931730;73;21085;-75
2023/07/20 00:49:41;;;;;;;2.00;1.57;;;24.60;97.10;;;;;;1936691;72;22623;-77
2023/07/20 00:55:13;;;;;;;2.95;1.80;;;24.60;97.50;;;;;;1946375;72;22201;-75
2023/07/20 00:58:06;;;;;;;3.15;1.92;;;24.50;97.60;;;;;;1902033;75;21188;-75
2023/07/20 01:00:57;;;;;;;3.87;1.95;;;24.50;97.30;;;;;;1894857;75;21102;-75
2023/07/20 01:03:49;;;;;;;4.65;2.17;;;24.40;97.60;;;;;;1886570;75;21157;-75
2023/07/20 01:06:47;;;;;;;4.92;2.00;;;24.40;97.80;;;;;;1890634;75;21115;-76
2023/07/20 01:09:39;;;;;;;;;;;24.40;97.90;;;;;;1885933;76;21098;-76
2023/07/20 01:15:13;;;;;;;3.33;1.90;;;24.20;98.10;;;;;;1941252;72;22236;-79
2023/07/20 01:18:04;;;;;;;3.08;2.27;;;24.20;98.10;;;;;;1910088;75;21163;-78
2023/07/20 01:20:59;;;;;;;3.25;2.35;;;24.20;98.10;;;;;;1903243;75;21135;-75
2023/07/20 01:24:03;;;;;;;2.52;1.80;;;24.20;98.60;;;;;;1897913;75;21126;-79
2023/07/20 01:27:14;;;;;;;3.65;2.08;;;24.20;98.70;;;;;;1898570;75;21106;-79
2023/07/20 01:33:08;;;;;;;3.90;2.02;;;24.00;99.00;;;;;;1942472;72;22161;-78
2023/07/20 01:36:02;;;;;;;3.47;2.30;;;24.00;99.10;;;;;;1894964;75;21154;-78
2023/07/20 01:38:53;;;;;;;4.17;1.82;;;23.90;99.30;;;;;;1870456;75;21156;-78
2023/07/20 01:41:46;;;;;;;3.50;2.05;;;23.90;99.70;;;;;;1873100;75;21118;-77
2023/07/20 01:44:39;;;;;;;2.87;1.98;;;23.90;99.80;;;;;;1875427;75;21126;-77
2023/07/20 01:47:31;;;;;;;2.70;1.95;;;23.80;99.80;;;;;;1885622;75;21139;-77
2023/07/20 01:50:22;;;;;;;4.47;2.05;;;23.80;99.90;;;;;;1880401;75;21171;-77
2023/07/20 01:53:15;;;;;;;3.85;2.17;;;23.80;99.90;;;;;;1891852;75;21545;-78
2023/07/20 01:56:07;;;;;;;3.42;1.98;;;23.80;99.90;;;;;;1880892;75;21525;-78
2023/07/20 02:01:37;;;;;;;4.28;1.65;;;23.70;99.90;;;;;;1948343;72;22279;-77
2023/07/20 02:07:07;;;;;;;3.62;2.10;;;23.70;99.90;;;;;;1922455;72;22264;-76
2023/07/20 02:09:58;;;;;;;2.60;1.87;;;23.70;99.90;;;;;;1901623;75;21106;-77
2023/07/20 02:12:49;;;;;;;2.77;1.80;;;23.60;99.90;;;;;;1898166;75;21082;-77
2023/07/20 02:15:42;;;;;;;4.10;2.00;;;23.60;99.90;;;;;;1892732;75;21164;-77
2023/07/20 02:18:33;;;;;;;4.60;2.22;;;23.60;99.90;;;;;;1913430;75;21138;-77
2023/07/20 02:21:24;;;;;;;3.42;1.82;;;23.50;99.90;;;;;;1912680;75;21321;-77
2023/07/20 02:24:16;;;;;;;3.42;1.90;;;23.50;99.90;;;;;;1916522;75;21199;-77
2023/07/20 02:29:48;;;;;;;4.10;2.33;;;23.40;99.90;;;;;;1930844;72;22137;-78
2023/07/20 02:32:39;;;;;;;2.47;2.10;;;23.40;99.90;;;;;;1896171;75;21573;-77
2023/07/20 02:38:10;;;;;;;3.72;2.10;;;23.40;99.90;;;;;;1943529;72;22239;-78
2023/07/20 02:41:01;;;;;;;4.95;2.30;;;23.30;99.90;;;;;;1916424;74;21142;-78
2023/07/20 02:43:52;;;;;;;2.25;1.90;;;23.30;99.90;;;;;;1911505;74;21122;-77
2023/07/20 02:49:23;;;;;;;2.65;1.72;;;23.10;99.90;;;;;;1929888;72;22601;-78
2023/07/20 02:52:14;;;;;;;4.17;1.65;;;23.00;99.90;;;;;;1900460;75;21102;-77
2023/07/20 02:57:44;;;;;;;2.10;1.67;;;23.00;99.90;;;;;;1954570;72;22571;-77
2023/07/20 03:00:35;;;;;;;2.92;1.80;;;22.80;99.90;;;;;;1917361;73;21100;-77
2023/07/20 03:03:26;;;;;;;3.10;1.98;;;22.70;99.90;;;;;;1928992;73;21151;-77
2023/07/20 03:06:18;;;;;;;2.62;1.70;;;22.60;99.90;;;;;;1937002;73;21124;-77
2023/07/20 03:09:10;;;;;;;3.85;1.87;;;22.60;99.90;;;;;;1943174;73;21106;-77
2023/07/20 03:14:40;;;;;;;3.70;1.92;;;22.60;99.90;;;;;;1944919;72;22167;-77
2023/07/20 03:17:32;;;;;;;2.65;1.95;;;22.70;99.90;;;;;;1878763;75;21106;-77
2023/07/20 03:23:02;;;;;;;3.33;1.90;;;22.70;99.90;;;;;;1916295;72;22270;-77
2023/07/20 03:28:33;;;;;;;3.20;1.90;;;22.60;99.90;;;;;;1944230;72;22290;-77
2023/07/20 03:31:24;;;;;;;2.15;1.60;;;22.60;99.90;;;;;;1903961;75;21549;-77
2023/07/20 03:34:15;;;;;;;2.37;1.80;;;22.60;99.90;;;;;;1913799;75;21087;-77
2023/07/20 03:39:46;;;;;;;3.55;2.02;;;22.50;99.90;;;;;;1945745;72;22248;-77
2023/07/20 03:42:38;;;;;;;3.02;1.90;;;22.60;99.90;;;;;;1895040;75;21176;-79
2023/07/20 03:45:29;;;;;;;2.30;1.77;;;22.40;99.90;;;;;;1896595;75;21054;-78
2023/07/20 03:48:23;;;;;;;3.17;1.70;;;22.40;99.90;;;;;;1899665;75;21667;-75
2023/07/20 03:51:14;;;;;;;3.47;1.57;;;22.30;99.90;;;;;;1888854;75;21083;-73
2023/07/20 03:54:07;;;;;;;2.20;1.80;;;22.20;99.90;;;;;;1894618;75;21544;-73
2023/07/20 03:57:00;;;;;;;2.52;1.60;;;22.10;99.90;;;;;;1909097;75;21102;-73
2023/07/20 03:59:51;;;;;;;3.33;1.82;;;22.10;99.90;;;;;;1893013;75;21082;-73
2023/07/20 04:02:42;;;;;;;3.37;1.60;;;22.00;99.90;;;;;;1895064;75;21110;-73
2023/07/20 04:08:12;;;;;;;3.15;1.70;;;21.90;99.90;;;;;;1951969;72;22149;-72
2023/07/20 04:11:04;;;;;;;2.37;1.70;;;21.80;99.90;;;;;;1932081;73;21352;-72
2023/07/20 04:13:56;;;;;;;6.22;1.95;;;21.80;99.90;;;;;;1916275;75;21110;-72
2023/07/20 04:16:49;;;;;;;3.47;1.70;;;21.90;99.90;;;;;;1928641;73;21168;-72
2023/07/20 04:19:40;;;;;;;3.20;1.90;;;21.80;99.90;;;;;;1920361;73;21184;-71
2023/07/20 04:22:31;;;;;;;3.27;1.65;;;21.70;99.90;;;;;;1930384;73;21094;-73
2023/07/20 04:25:24;;;;;;;3.20;1.70;;;21.70;99.90;;;;;;1928141;73;21539;-72
2023/07/20 04:28:15;;;;;;;3.45;1.60;;;21.60;99.90;;;;;;1917472;73;21711;-74
2023/07/20 04:33:53;;;;;;;2.62;1.77;;;21.50;99.90;;;;;;1931927;72;22142;-73
2023/07/20 04:36:45;;;;;;;4.65;1.80;;;21.50;99.90;;;;;;1910417;74;21565;-73
2023/07/20 04:39:38;;;;;;;2.50;1.90;;;21.50;99.90;;;;;;1893232;75;21094;-73
2023/07/20 04:42:30;;;;;;;3.72;2.08;;;21.50;99.90;;;;;;1915147;74;21732;-73
2023/07/20 04:48:06;;;;;;;11.30;2.10;;;21.50;99.90;;;;;;1932180;72;22157;-72
2023/07/20 04:50:58;;;;;;;3.20;2.00;;;21.50;99.90;;;;;;1887088;75;21564;-73
2023/07/20 04:53:49;;;;;;;3.37;2.05;;;21.50;99.90;;;;;;1896747;75;21126;-72
2023/07/20 04:56:40;;;;;;;4.22;1.90;;;21.40;99.90;;;;;;1884169;75;21126;-72
2023/07/20 04:59:35;;;;;;;2.60;1.77;;;21.40;99.90;;;;;;1896731;75;21130;-72
2023/07/20 05:02:27;;;;;;;5.08;2.10;;;21.30;99.90;;;;;;1901651;75;21208;-73
2023/07/20 05:07:57;;;;;;;4.12;2.00;;;21.40;99.90;;;;;;1944421;72;22149;-73
2023/07/20 05:10:48;;;;;;;2.25;1.62;;;21.50;99.90;;;;;;1936653;73;21133;-72
2023/07/20 05:13:40;;;;;;;4.95;2.15;;;21.50;99.90;;;;;;1928998;73;21136;-76
2023/07/20 05:16:31;;;;;;;2.95;1.80;;;21.50;99.90;;;;;;1937196;73;21201;-86
2023/07/20 05:19:25;;;;;;;2.85;1.92;;;21.50;99.90;;;;;;1932295;73;21167;-81
2023/07/20 05:24:55;;;;;;;3.02;1.70;;;21.50;99.90;;;;;;1944942;72;22302;-81
2023/07/20 05:27:47;;;;;;;3.62;1.87;;;21.40;99.90;;;;;;1899676;75;21125;-82
2023/07/20 05:33:17;;;;;;;3.92;1.70;;;21.40;99.90;;;;;;1948269;72;22173;-81
2023/07/20 05:36:09;;;;;;;2.60;1.77;;;21.50;99.90;;;;;;1901635;75;21060;-81
2023/07/20 05:39:01;;;;;;;3.92;1.65;;;21.60;99.90;;;;;;1901301;75;21109;-82
2023/07/20 05:41:52;;;;;;;3.95;1.57;;;21.60;99.90;;;;;;1905332;75;21243;-82
2023/07/20 05:44:43;;;;;;;3.17;2.08;;;21.60;99.90;;;;;;1887635;75;21202;-82
2023/07/20 05:47:35;;;;;;;4.15;1.98;;;21.60;99.90;;;;;;1892347;75;21085;-81
2023/07/20 05:50:26;;;;;;;4.25;1.70;;;21.70;99.90;;;;;;1905490;75;21150;-82
2023/07/20 05:53:18;;;;;;;5.40;1.80;;;21.60;99.90;;;;;;1901153;75;21205;-81
2023/07/20 05:56:10;;;;;;;2.90;1.67;;;21.60;99.90;;;;;;1898568;75;21074;-81
2023/07/20 05:59:02;;;;;;;4.55;2.02;;;21.70;99.90;;;;;;1906554;75;21103;-81
2023/07/20 06:01:53;;;;;;;4.05;1.80;;;21.70;99.90;;;;;;1901936;75;21626;-82
2023/07/20 06:07:25;;;;;;;5.00;1.80;;;21.60;99.90;;;;;;1934455;72;22288;-81
2023/07/20 06:12:56;;;;;;;3.20;1.62;;;21.60;99.90;;;;;;1956159;72;22329;-82
2023/07/20 06:15:47;;;;;;;3.45;1.75;;;21.50;99.90;;;;;;1935075;73;21106;-81
2023/07/20 06:18:38;;;;;;;3.62;1.47;;;21.50;99.90;;;;;;1928197;73;21135;-82
2023/07/20 06:21:30;;;;;;;2.98;1.62;;;21.50;99.90;;;;;;1929452;73;21498;-82
2023/07/20 06:24:21;;;;;;;2.58;1.65;;;21.60;99.90;;;;;;1916803;73;21153;-82
2023/07/20 06:27:13;;;;;;;5.67;1.80;;;21.60;99.90;;;;;;1934917;73;21088;-82
2023/07/20 06:32:45;;;;;;;5.05;1.62;;;21.60;99.90;;;;;;1926130;72;22285;-81
2023/07/20 06:38:16;;;;;;;3.42;1.90;;;21.80;99.90;;;;;;1950404;72;22650;-82
2023/07/20 06:43:48;;;;;;;6.12;1.70;;;21.90;99.90;;;;;;1936471;72;22245;-82
2023/07/20 06:46:40;;;;;;;3.12;1.87;;;21.80;99.90;;;;;;1903178;73;21163;-82
2023/07/20 06:52:11;;;;;;;4.58;1.98;;;21.90;99.90;;;;;;1926032;72;22174;-82
2023/07/20 06:57:41;;;;;;;2.30;1.65;;;21.80;99.90;;;;;;1933662;72;22485;-84
2023/07/20 07:00:35;;;;;;;4.03;2.10;;;21.90;99.90;;;;;;1892049;75;21063;-82
2023/07/20 07:03:26;;;;;;;3.83;1.95;;;22.00;99.90;;;;;;1896101;75;21094;-83
2023/07/20 07:06:18;;;;;;;3.52;2.10;;;22.10;99.90;;;;;;1895904;74;21623;-82
2023/07/20 07:09:10;;;;;;;3.47;1.70;;;22.00;99.90;;;;;;1910473;75;21091;-82
2023/07/20 07:12:01;;;;;;;4.67;1.75;;;22.00;99.90;;;;;;1900626;75;21138;-82
2023/07/20 07:17:33;;;;;;;2.20;1.62;;;22.30;99.90;;;;;;1949888;72;22454;-81
2023/07/20 07:20:26;;;;;;;3.45;1.90;;;22.30;99.90;;;;;;1919505;73;21583;-83
2023/07/20 07:23:18;;;;;;;4.47;1.82;;;22.40;99.90;;;;;;1917252;75;21086;-82
2023/07/20 07:26:09;;;;;;;3.47;1.90;;;22.50;99.90;;;;;;1917769;73;21641;-82
2023/07/20 07:29:00;;;;;;;3.58;1.90;;;22.60;99.90;;;;;;1925636;73;21738;-82
2023/07/20 07:31:52;;;;;;;5.95;1.80;;;22.70;99.90;;;;;;1932167;73;21193;-82
2023/07/20 07:34:47;;;;;;;5.00;1.90;;;22.80;99.90;;;;;;1926328;73;21175;-82
2023/07/20 07:37:38;;;;;;;3.52;1.50;;;22.80;99.90;;;;;;1929003;73;21110;-82
2023/07/20 07:40:31;;;;;;;4.78;1.77;;;22.80;99.90;;;;;;1935680;73;21179;-82
2023/07/20 07:43:22;;;;;;;6.35;2.12;;;22.90;99.90;;;;;;1928794;73;21173;-82
2023/07/20 07:48:52;;;;;;;3.40;1.70;;;23.00;99.90;;;;;;1939482;72;22298;-84
2023/07/20 07:51:44;;;;;;;5.83;1.87;;;23.00;99.90;;;;;;1889289;75;21157;-84
2023/07/20 07:54:35;;;;;;;2.85;1.75;;;23.10;99.90;;;;;;1882392;75;21206;-83
2023/07/20 07:57:27;;;;;;;3.35;1.45;;;23.20;99.90;;;;;;1898199;75;21538;-83
2023/07/20 08:02:58;;;;;;;4.70;1.60;;;23.40;99.90;;;;;;1927239;72;22659;-84
2023/07/20 08:05:50;;;;;;;2.85;1.42;;;23.50;99.90;;;;;;1895689;75;21534;-83
2023/07/20 08:08:41;;;;;;;2.50;1.30;;;23.70;99.90;;;;;;1902510;75;21130;-83
2023/07/20 08:11:33;;;;;;;6.05;1.92;;;23.80;99.90;;;;;;1905365;75;21106;-83
2023/07/20 08:14:24;;;;;;;2.35;1.40;;;23.80;99.90;;;;;;1908024;75;21131;-83
2023/07/20 08:19:58;;;;;;;1.50;1.00;;;23.70;99.90;;;;;;1929013;72;22247;-83
2023/07/20 08:22:49;;;;;;;3.52;1.40;;;23.80;99.90;;;;;;1883619;75;21047;-82
2023/07/20 08:28:19;;;;;;;5.50;1.20;;;24.00;99.90;;;;;;1950498;72;22302;-84
2023/07/20 08:31:10;;;;;;;1.70;1.10;;;24.00;99.90;;;;;;1928619;73;21047;-82
2023/07/20 08:34:01;;;;;;;2.08;1.20;;;24.00;99.90;;;;;;1924870;73;21085;-82
2023/07/20 08:36:54;;;;;;;2.92;1.40;;;24.00;99.90;;;;;;1933019;73;21218;-82
2023/07/20 08:39:45;;;;;;;2.52;1.37;;;24.10;99.90;;;;;;1927264;73;21177;-82
2023/07/20 08:42:39;;;;;;;2.37;1.25;;;24.20;99.90;;;;;;1927711;73;21173;-82
2023/07/20 08:45:32;;;;;;;2.05;1.30;;;24.30;99.90;;;;;;1926700;73;21146;-82
2023/07/20 08:48:25;;;;;;;2.83;1.50;;;24.30;99.90;;;;;;1933032;73;21130;-82
2023/07/20 08:51:17;;;;;;;2.90;1.20;;;24.30;99.90;;;;;;1917852;73;21184;-82
2023/07/20 08:54:10;;;;;;;2.33;1.37;;;24.40;99.90;;;;;;1923084;73;21096;-82
2023/07/20 08:57:04;;;;;;;6.75;1.98;;;24.40;99.90;;;;;;1928327;73;21110;-82
2023/07/20 09:02:39;;;;;;;3.77;1.55;;;24.70;99.90;;;;;;1940364;72;22227;-84
2023/07/20 09:08:09;;;;;;;2.52;1.60;;;24.90;99.90;;;;;;1943675;72;22189;-82
2023/07/20 09:13:42;;;;;;;2.40;1.40;;;24.90;99.90;;;;;;1943355;72;22170;-82
2023/07/20 09:16:36;;;;;;;2.15;1.30;;;24.80;99.90;;;;;;1888371;75;21130;-82
2023/07/20 09:22:08;;;;;;;3.00;1.45;;;24.90;99.90;;;;;;1953968;72;22213;-83
2023/07/20 09:27:41;;;;;;;2.15;1.05;;;25.10;99.90;;;;;;1938830;72;22247;-82
2023/07/20 09:33:23;;;;;;;1.85;1.40;;;25.10;99.90;;;;;;1940871;72;22254;-82
2023/07/20 09:36:16;;;;;;;3.45;1.60;;;25.20;99.90;;;;;;1896335;75;21125;-82
2023/07/20 09:39:09;;;;;;;3.02;1.32;;;25.30;99.90;;;;;;1896911;75;21556;-82
2023/07/20 09:42:04;;;;;;;4.62;1.22;;;25.40;99.90;;;;;;1886876;75;21114;-83
2023/07/20 09:44:58;;;;;;;2.95;1.50;;;25.60;99.90;;;;;;1872447;75;21154;-83
2023/07/20 09:47:51;;;;;;;1.92;1.60;;;25.60;99.90;;;;;;1898298;75;21103;-82
2023/07/20 09:50:46;;;;;;;2.75;1.10;;;25.60;99.90;;;;;;1894618;75;21558;-83
2023/07/20 09:53:38;;;;;;;4.35;1.60;;;25.60;99.90;;;;;;1919247;73;21216;-82
2023/07/20 09:56:31;;;;;;;3.27;1.70;;;25.50;99.90;;;;;;1877258;75;21627;-82
2023/07/20 09:59:24;;;;;;;5.37;1.40;;;25.70;99.90;;;;;;1894748;73;21144;-82
2023/07/20 10:05:00;;;;;;;4.15;1.30;;;25.80;99.90;;;;;;1934723;72;22321;-81
2023/07/20 10:07:53;;;;;;;3.08;1.17;;;25.90;99.90;;;;;;1892010;74;21113;-82
2023/07/20 10:13:28;;;;;;;3.37;1.15;;;26.10;99.90;;;;;;1945664;72;22256;-81
2023/07/20 10:16:22;;;;;;;2.52;1.12;;;25.80;99.90;;;;;;1900974;75;21146;-82
2023/07/20 10:22:01;;;;;;;1.62;1.12;;;26.00;99.90;;;;;;1939284;72;22995;-82
2023/07/20 10:27:34;;;;;;;3.08;1.10;;;26.20;99.90;;;;;;1940125;72;22293;-81
2023/07/20 10:33:06;;;;;;;2.17;1.30;;;26.40;99.90;;;;;;1932341;72;22261;-83
2023/07/20 10:35:58;;;;;;;2.98;1.30;;;26.40;99.90;;;;;;1892639;75;21113;-82
2023/07/20 10:38:56;;;;;;;2.42;1.15;;;26.40;99.90;;;;;;1907815;75;21096;-82
2023/07/20 10:41:49;;;;;;;2.83;1.07;;;26.60;99.90;;;;;;1901385;75;21168;-82
2023/07/20 10:44:42;;;;;;;2.52;1.17;;;26.50;99.90;;;;;;1896691;75;21055;-82
2023/07/20 10:47:36;;;;;;;1.77;1.20;;;26.40;99.90;;;;;;1891151;75;21546;-82
2023/07/20 10:50:30;;;;;;;1.12;1.02;;;26.50;99.90;;;;;;1881246;75;21175;-82
2023/07/20 10:53:22;;;;;;;3.15;1.17;;;26.50;99.90;;;;;;1903683;75;21149;-81
2023/07/20 10:56:15;;;;;;;2.80;1.30;;;26.50;99.90;;;;;;1892296;75;21107;-82
2023/07/20 11:01:53;;;;;;;3.58;1.22;;;26.60;99.90;;;;;;1931231;72;22138;-82
2023/07/20 11:04:46;;;;;;;2.25;1.10;;;26.60;99.90;;;;;;1903269;75;21111;-82
2023/07/20 11:10:22;;;;;;;2.42;1.20;;;26.80;99.90;;;;;;1936803;72;22150;-82
2023/07/20 11:13:26;;;;;;;2.08;1.35;;;26.80;99.90;;;;;;1899006;75;21095;-81
2023/07/20 11:16:19;;;;;;;2.62;1.27;;;26.90;99.90;;;;;;1872901;75;21169;-81
2023/07/20 11:19:17;;;;;;;4.25;1.42;;;26.80;99.90;;;;;;1872188;75;21166;-83
2023/07/20 11:22:16;;;;;;;3.45;1.37;;;26.90;99.90;;;;;;1893293;75;21119;-82
2023/07/20 11:25:09;;;;;;;1.72;1.10;;;27.00;99.90;;;;;;1871283;75;21089;-82
2023/07/20 11:28:02;;;;;;;1.98;1.30;;;27.00;99.90;;;;;;1894466;75;21071;-83
2023/07/20 11:30:55;;;;;;;2.00;1.27;;;27.10;99.90;;;;;;1881714;75;21153;-85
2023/07/20 11:33:46;;;;;;;5.03;1.55;;;27.10;99.90;;;;;;1901477;75;21131;-82
2023/07/20 11:36:38;;;;;;;1.50;1.20;;;27.10;99.90;;;;;;1884976;75;21087;-83
2023/07/20 11:39:32;;;;;;;2.25;1.40;;;27.20;99.90;;;;;;1882819;75;21096;-83
2023/07/20 11:42:23;;;;;;;2.37;0.95;;;27.20;99.90;;;;;;1882911;75;21071;-82
2023/07/20 11:45:16;;;;;;;4.03;1.30;;;27.30;99.90;;;;;;1885014;75;21525;-81
2023/07/20 11:48:08;;;;;;;1.85;1.30;;;27.40;99.90;;;;;;1872191;76;21639;-83
2023/07/20 11:50:59;;;;;;;3.35;1.17;;;27.50;99.90;;;;;;1894135;75;21581;-81
2023/07/20 11:53:51;;;;;;;2.98;1.30;;;27.50;99.90;;;;;;1894054;75;21060;-82
2023/07/20 11:56:45;;;;;;;3.70;1.22;;;27.60;99.90;;;;;;1893133;75;21241;-83
2023/07/20 11:59:38;;;;;;;2.58;1.22;;;27.60;99.90;;;;;;1888815;75;21164;-82
2023/07/20 12:02:30;;;;;;;2.62;1.15;;;27.60;99.90;;;;;;1872400;76;21099;-82
2023/07/20 12:05:23;;;;;;;2.98;1.30;;;27.60;99.90;;;;;;1893943;75;21071;-82
2023/07/20 12:08:14;;;;;;;4.53;1.15;;;27.70;99.90;;;;;;1873727;75;21534;-81
2023/07/20 12:11:05;;;;;;;4.25;1.20;;;27.90;99.90;;;;;;1892473;75;21118;-80
2023/07/20 12:13:59;;;;;;;2.80;1.10;;;27.90;99.90;;;;;;1889754;75;21111;-83
2023/07/20 12:16:56;;;;;;;3.45;1.30;;;27.80;99.90;;;;;;1888203;75;21139;-82
2023/07/20 12:19:47;;;;;;;5.85;1.67;;;27.60;99.90;;;;;;1884488;75;21147;-82
2023/07/20 12:22:41;;;;;;;2.15;1.22;;;27.80;99.90;;;;;;1897549;75;21112;-82
2023/07/20 12:25:40;;;;;;;8.98;1.55;;;27.90;99.90;;;;;;1892733;75;21169;-82
2023/07/20 12:28:34;;;;;;;3.33;1.00;;;28.00;99.90;;;;;;1888853;74;21160;-84
2023/07/20 12:31:26;;;;;;;3.52;1.42;;;28.20;99.90;;;;;;1887394;75;21043;-82
2023/07/20 12:34:18;;;;;;;3.05;1.25;;;28.10;99.90;;;;;;1885751;75;21167;-82
2023/07/20 12:37:09;;;;;;;3.20;1.25;;;28.10;99.90;;;;;;1839806;77;21221;-84
2023/07/20 12:40:03;;;;;;;6.37;1.50;;;28.20;99.90;;;;;;1892077;75;21140;-83
2023/07/20 12:42:54;;;;;;;1.67;1.30;;;28.10;99.90;;;;;;1887469;75;21165;-81
2023/07/20 12:45:45;;;;;;;4.20;1.22;;;27.90;99.90;;;;;;1889001;75;21055;-82
2023/07/20 12:48:40;;;;;;;1.62;1.02;;;27.90;99.90;;;;;;1888578;75;21110;-81
2023/07/20 12:51:32;;;;;;;2.80;1.25;;;28.00;99.90;;;;;;1876588;76;21578;-84
2023/07/20 12:54:23;;;;;;;3.70;1.60;;;28.10;99.90;;;;;;1888741;75;21151;-81
2023/07/20 12:57:14;;;;;;;2.92;1.40;;;28.10;99.90;;;;;;1887170;75;21099;-82
2023/07/20 13:00:08;;;;;;;4.67;1.40;;;28.30;99.90;;;;;;1887904;75;21066;-83
2023/07/20 13:03:04;;;;;;;2.58;1.30;;;28.30;99.90;;;;;;1890731;75;21151;-80
2023/07/20 13:05:58;;;;;;;2.47;1.37;;;28.30;99.90;;;;;;1891012;75;21118;-81
2023/07/20 13:08:55;;;;;;;2.27;1.07;;;28.40;99.90;;;;;;1887466;75;21576;-81
2023/07/20 13:11:44;;;;;;;2.60;1.50;;;28.50;99.90;;;;;;1884520;75;21192;-81
2023/07/20 13:14:35;;;;;;;2.75;1.20;;;28.50;99.90;;;;;;1884164;75;21560;-80
2023/07/20 13:17:26;;;;;;;1.62;0.95;;;28.60;99.90;;;;;;1888493;74;21099;-80
2023/07/20 13:20:18;;;;;;;2.08;1.10;;;28.40;99.90;;;;;;1883982;75;21094;-84
2023/07/20 13:23:10;;;;;;;3.92;1.10;;;28.30;99.90;;;;;;1882791;75;21157;-81
2023/07/20 13:26:01;;;;;;;3.42;1.07;;;28.40;99.90;;;;;;1884604;75;21067;-79
2023/07/20 13:28:52;;;;;;;2.77;1.10;;;28.60;99.90;;;;;;1888740;75;21107;-82
2023/07/20 13:31:46;;;;;;;3.15;1.40;;;28.70;99.90;;;;;;1889844;75;21059;-79
2023/07/20 13:34:39;;;;;;;2.15;1.32;;;28.70;99.90;;;;;;1880340;75;21106;-80
2023/07/20 13:37:31;;;;;;;2.25;1.30;;;28.70;99.90;;;;;;1900084;75;21217;-81
2023/07/20 13:40:23;;;;;;;2.02;1.65;;;28.80;99.90;;;;;;1897402;75;21640;-81
2023/07/20 13:43:14;;;;;;;1.82;1.10;;;28.90;99.90;;;;;;1892430;75;21181;-83
2023/07/20 13:46:06;;;;;;;3.20;1.47;;;28.80;99.90;;;;;;1885402;75;21102;-80
2023/07/20 13:48:57;;;;;;;2.17;1.32;;;28.80;99.90;;;;;;1883001;75;21577;-84
2023/07/20 13:51:49;;;;;;;3.15;1.55;;;29.00;99.90;;;;;;1890692;75;21179;-81
2023/07/20 13:54:41;;;;;;;2.37;1.30;;;29.20;99.90;;;;;;1876424;76;21145;-80
2023/07/20 13:57:34;;;;;;;1.77;1.15;;;29.30;99.90;;;;;;1892880;75;21103;-80
2023/07/20 14:00:30;;;;;;;1.95;1.20;;;29.40;99.90;;;;;;1871538;75;21056;-79
2023/07/20 14:03:18;;;;;;;2.20;1.25;;;29.60;99.70;;;;;;1893129;75;21164;-80
2023/07/20 14:06:11;;;;;;;2.62;1.17;;;29.90;99.40;;;;;;1890393;75;21619;-82
2023/07/20 14:09:04;;;;;;;1.50;1.35;;;30.00;98.40;;;;;;1869773;75;21102;-81
2023/07/20 14:11:56;;;;;;;3.60;1.30;;;30.10;98.10;;;;;;1901874;74;21602;-81
2023/07/20 14:14:48;;;;;;;1.95;1.35;;;30.40;97.50;;;;;;1900030;75;21098;-81
2023/07/20 14:17:41;;;;;;;1.50;1.30;;;30.30;97.40;;;;;;1893631;75;21637;-85
2023/07/20 14:20:32;;;;;;;3.00;1.17;;;30.60;97.20;;;;;;1888859;75;21587;-81
2023/07/20 14:23:23;;;;;;;1.52;1.40;;;30.70;96.30;;;;;;1887673;75;21172;-82
2023/07/20 14:26:21;;;;;;;3.15;1.50;;;30.70;96.30;;;;;;1890063;75;21121;-80
2023/07/20 14:29:14;;;;;;;3.58;1.55;;;31.00;96.10;;;;;;1889829;75;21103;-80
2023/07/20 14:32:08;;;;;;;3.77;1.70;;;31.30;95.40;;;;;;1878386;75;21363;-80
2023/07/20 14:34:59;;;;;;;2.22;1.27;;;31.10;95.00;;;;;;1877717;76;21207;-81
2023/07/20 14:37:51;;;;;;;2.83;1.42;;;31.20;94.90;;;;;;1898046;75;21114;-82
2023/07/20 14:40:42;;;;;;;2.22;1.25;;;31.50;94.20;;;;;;1898452;75;21083;-81
2023/07/20 14:43:34;;;;;;;2.42;1.15;;;31.60;93.80;;;;;;1876447;76;21192;-82
2023/07/20 14:46:25;;;;;;;3.05;1.45;;;31.60;93.70;;;;;;1891843;75;21169;-81
2023/07/20 14:49:18;;;;;;;1.30;1.20;;;31.60;93.00;;;;;;1888452;75;21150;-81
2023/07/20 14:52:10;;;;;;;3.27;1.22;;;31.70;92.50;;;;;;1905090;75;21577;-79
2023/07/20 14:55:02;;;;;;;4.40;1.72;;;31.90;92.10;;;;;;1893738;75;21134;-81
2023/07/20 14:57:56;;;;;;;2.00;1.30;;;32.00;91.80;;;;;;1909861;75;21098;-80
2023/07/20 15:00:51;;;;;;;1.62;1.15;;;32.10;91.70;;;;;;1897377;75;21143;-82
2023/07/20 15:03:42;;;;;;;1.82;1.30;;;32.10;91.20;;;;;;1898650;75;21098;-80
2023/07/20 15:06:34;;;;;;;2.35;1.50;;;32.20;90.40;;;;;;1898939;75;21083;-82
2023/07/20 15:09:25;;;;;;;3.08;1.02;;;32.20;90.60;;;;;;1876523;76;21099;-81
2023/07/20 15:12:17;;;;;;;2.27;1.37;;;32.20;90.10;;;;;;1888639;75;21079;-81
2023/07/20 15:15:11;;;;;;;2.42;1.20;;;32.20;89.70;;;;;;1885440;75;21181;-81
2023/07/20 15:18:02;;;;;;;6.70;1.42;;;32.10;89.60;;;;;;1885894;75;21631;-81
2023/07/20 15:20:54;;;;;;;1.52;1.10;;;32.40;88.90;;;;;;1891441;75;21613;-81
2023/07/20 15:23:46;;;;;;;1.62;1.30;;;32.30;87.90;;;;;;1892203;75;21102;-82
2023/07/20 15:26:37;;;;;;;3.55;1.30;;;32.40;87.40;;;;;;1887602;75;21091;-81
2023/07/20 15:29:29;;;;;;;1.42;1.17;;;32.40;87.20;;;;;;1903962;75;21095;-81
2023/07/20 15:32:21;;;;;;;3.72;1.20;;;32.60;85.70;;;;;;1898102;75;21491;-81
2023/07/20 15:35:13;;;;;;;1.90;1.20;;;32.40;86.10;;;;;;1893441;75;21566;-80
2023/07/20 15:38:04;;;;;;;2.55;1.32;;;32.40;84.70;;;;;;1897704;75;21164;-81
2023/07/20 15:40:59;;;;;;;1.75;1.07;;;32.50;84.20;;;;;;1899956;75;21183;-81
2023/07/20 15:43:50;;;;;;;1.55;1.10;;;32.50;83.70;;;;;;1900228;75;21156;-82
2023/07/20 15:46:49;;;;;;;3.40;1.40;;;32.70;83.00;;;;;;1878218;76;21153;-81
2023/07/20 15:49:41;;;;;;;2.58;1.42;;;32.70;82.20;;;;;;1891271;75;21059;-81
2023/07/20 15:52:33;;;;;;;1.52;1.02;;;32.70;82.10;;;;;;1876288;75;21160;-84
2023/07/20 15:55:25;;;;;;;3.67;1.45;;;33.20;81.10;;;;;;1900042;75;21896;-80
2023/07/20 15:58:20;;;;;;;2.67;1.20;;;33.00;80.40;;;;;;1897577;75;21146;-81
2023/07/20 16:01:11;;;;;;;1.72;0.88;;;33.00;80.30;;;;;;1891370;75;21098;-83
2023/07/20 16:04:03;;;;;;;1.62;1.12;;;33.40;80.10;;;;;;1876828;75;21122;-80
2023/07/20 16:09:36;;;;;;;3.58;1.30;;;32.80;78.70;;;;;;1936265;72;22193;-81
2023/07/20 16:12:28;;;;;;;2.60;1.32;;;32.80;79.20;;;;;;1898249;75;21059;-82
2023/07/20 16:15:19;;;;;;;2.92;1.55;;;32.90;78.80;;;;;;1916608;75;21132;-81
2023/07/20 16:18:12;;;;;;;2.12;1.15;;;33.40;78.90;;;;;;1894254;75;21175;-83
2023/07/20 16:21:04;;;;;;;1.10;1.00;;;33.60;76.60;;;;;;1895659;75;21277;-82
2023/07/20 16:23:55;;;;;;;2.90;1.32;;;33.50;76.60;;;;;;1899227;75;21102;-84
2023/07/20 16:26:47;;;;;;;1.55;1.10;;;33.30;75.80;;;;;;1884344;75;21106;-80
2023/07/20 16:29:38;;;;;;;2.10;1.10;;;33.30;75.70;;;;;;1888336;75;21156;-85
2023/07/20 16:32:31;;;;;;;3.22;1.35;;;33.10;76.30;;;;;;1894672;75;21071;-82
2023/07/20 16:35:23;;;;;;;2.75;1.00;;;33.10;75.60;;;;;;1884029;76;21184;-83
2023/07/20 16:38:16;;;;;;;1.65;1.20;;;33.00;75.80;;;;;;1883702;76;21568;-80
2023/07/20 16:41:09;;;;;;;1.57;0.98;;;33.30;75.10;;;;;;1905855;75;21146;-81
2023/07/20 16:44:01;;;;;;;3.02;1.10;;;33.30;74.90;;;;;;1905874;75;21175;-81
2023/07/20 16:46:54;;;;;;;4.47;1.00;;;33.00;75.10;;;;;;1904672;75;21595;-80
2023/07/20 16:49:47;;;;;;;3.05;1.00;;;32.60;74.90;;;;;;1899942;75;21168;-80
2023/07/20 16:52:38;;;;;;;2.42;0.85;;;32.90;74.60;;;;;;1894639;75;21125;-82
2023/07/20 16:55:30;;;;;;;1.45;1.00;;;33.20;74.70;;;;;;1894849;75;21135;-84
2023/07/20 16:58:21;;;;;;;2.98;1.00;;;32.70;74.30;;;;;;1894554;75;21141;-81
2023/07/20 17:01:12;;;;;;;2.20;0.90;;;32.40;74.50;;;;;;1899753;75;21118;-83
2023/07/20 17:04:04;;;;;;;1.27;0.90;;;32.20;75.40;;;;;;1895903;75;21087;-80